createdAt,value
2023-03-28T00:01:03.599Z,4.30
2023-03-28T00:03:36.368Z,4.20
2023-03-28T00:06:09.727Z,4.30
2023-03-28T00:08:40.305Z,4.10
2023-03-28T00:11:12.738Z,4.10
2023-03-28T00:13:41.629Z,4.30
2023-03-28T00:16:13.202Z,4.00
2023-03-28T00:18:42.942Z,3.90
2023-03-28T00:21:24.171Z,3.90
2023-03-28T00:23:54.464Z,4.20
2023-03-28T00:26:26.912Z,4.00
2023-03-28T00:28:55.945Z,3.80
2023-03-28T00:31:25.244Z,4.00
2023-03-28T00:33:53.621Z,3.90
2023-03-28T00:36:23.607Z,3.90
2023-03-28T00:38:52.490Z,4.00
2023-03-28T00:41:21.872Z,4.00
2023-03-28T00:43:54.818Z,3.90
2023-03-28T00:46:26.452Z,4.00
2023-03-28T00:48:57.911Z,4.00
2023-03-28T00:51:31.340Z,4.10
2023-03-28T00:54:02.584Z,4.00
2023-03-28T00:56:35.286Z,4.00
2023-03-28T00:59:09.251Z,4.00
2023-03-28T01:01:37.699Z,4.00
2023-03-28T01:04:07.115Z,4.00
2023-03-28T01:06:40.578Z,4.00
2023-03-28T01:09:10.267Z,4.00
2023-03-28T01:11:40.816Z,4.00
2023-03-28T01:14:13.294Z,4.00
2023-03-28T01:16:43.067Z,3.90
2023-03-28T01:19:22.100Z,3.90
2023-03-28T01:22:16.717Z,3.90
2023-03-28T01:25:06.783Z,3.90
2023-03-28T01:27:41.400Z,3.90
2023-03-28T01:30:47.424Z,3.90
2023-03-28T01:33:43.695Z,3.90
2023-03-28T01:36:38.052Z,3.80
2023-03-28T01:39:11.255Z,3.80
2023-03-28T01:41:45.895Z,3.90
2023-03-28T01:44:21.780Z,3.80
2023-03-28T01:46:58.938Z,3.80
2023-03-28T01:49:35.111Z,3.80
2023-03-28T01:52:10.375Z,3.70
2023-03-28T01:54:45.697Z,3.70
2023-03-28T01:57:18.786Z,3.60
2023-03-28T01:59:50.814Z,3.60
2023-03-28T02:02:24.805Z,3.60
2023-03-28T02:04:57.243Z,3.60
2023-03-28T02:07:28.810Z,4.30
2023-03-28T02:09:58.319Z,3.50
2023-03-28T02:12:32.176Z,3.50
2023-03-28T02:15:05.081Z,3.50
2023-03-28T02:17:36.223Z,3.50
2023-03-28T02:20:09.238Z,3.50
2023-03-28T02:22:42.108Z,3.40
2023-03-28T02:25:10.812Z,3.50
2023-03-28T02:27:40.556Z,3.40
2023-03-28T02:30:10.422Z,3.40
2023-03-28T02:32:38.550Z,3.40
2023-03-28T02:35:09.191Z,3.40
2023-03-28T02:37:46.995Z,3.40
2023-03-28T02:40:33.706Z,3.40
2023-03-28T02:43:22.293Z,3.40
2023-03-28T02:46:09.990Z,3.40
2023-03-28T02:48:52.770Z,3.40
2023-03-28T02:51:31.764Z,3.40
2023-03-28T02:54:10.565Z,3.40
2023-03-28T02:56:51.258Z,3.30
2023-03-28T02:59:27.817Z,3.30
2023-03-28T03:01:56.495Z,3.50
2023-03-28T03:04:24.551Z,3.30
2023-03-28T03:06:52.756Z,3.30
2023-03-28T03:09:23.039Z,3.30
2023-03-28T03:11:51.169Z,3.70
2023-03-28T03:14:19.179Z,3.30
2023-03-28T03:16:48.921Z,3.30
2023-03-28T03:19:17.316Z,3.30
2023-03-28T03:21:45.528Z,3.30
2023-03-28T03:24:14.467Z,3.80
2023-03-28T03:26:44.329Z,3.40
2023-03-28T03:29:12.309Z,3.50
2023-03-28T03:31:40.391Z,3.30
2023-03-28T03:34:08.485Z,3.60
2023-03-28T03:36:36.725Z,3.30
2023-03-28T03:39:05.108Z,3.50
2023-03-28T03:41:33.328Z,3.30
2023-03-28T03:44:03.158Z,3.30
2023-03-28T03:46:32.321Z,3.30
2023-03-28T03:49:00.372Z,3.30
2023-03-28T03:51:28.680Z,3.30
2023-03-28T03:53:58.455Z,3.30
2023-03-28T03:56:27.237Z,3.30
2023-03-28T03:58:55.704Z,3.30
2023-03-28T04:01:26.093Z,3.30
2023-03-28T04:03:54.761Z,3.30
2023-03-28T04:06:22.930Z,3.30
2023-03-28T04:08:51.439Z,4.40
2023-03-28T04:11:19.827Z,3.30
2023-03-28T04:13:48.129Z,4.10
2023-03-28T04:16:16.832Z,3.30
2023-03-28T04:18:50.791Z,3.30
2023-03-28T04:21:20.802Z,4.20
2023-03-28T04:23:49.364Z,3.40
2023-03-28T04:26:20.840Z,3.40
2023-03-28T04:28:49.024Z,3.10
2023-03-28T04:31:17.374Z,3.30
2023-03-28T04:33:47.015Z,3.30
2023-03-28T04:36:17.023Z,3.50
2023-03-28T04:38:47.274Z,3.50
2023-03-28T04:41:16.846Z,3.30
2023-03-28T04:43:45.244Z,4.00
2023-03-28T04:46:13.346Z,3.30
2023-03-28T04:48:42.198Z,3.50
2023-03-28T04:51:11.993Z,3.40
2023-03-28T04:53:40.590Z,3.70
2023-03-28T04:56:13.953Z,3.80
2023-03-28T04:58:42.665Z,3.40
2023-03-28T05:01:11.715Z,4.00
2023-03-28T05:03:39.969Z,3.70
2023-03-28T05:06:08.612Z,3.40
2023-03-28T05:08:38.484Z,3.40
2023-03-28T05:11:06.889Z,3.40
2023-03-28T05:13:35.092Z,3.30
2023-03-28T05:16:03.261Z,3.50
2023-03-28T05:18:31.612Z,3.50
2023-03-28T05:20:59.840Z,4.00
2023-03-28T05:23:28.220Z,3.40
2023-03-28T05:25:58.964Z,3.40
2023-03-28T05:28:27.111Z,3.70
2023-03-28T05:30:55.213Z,3.50
2023-03-28T05:33:23.796Z,3.50
2023-03-28T05:35:51.872Z,3.50
2023-03-28T05:38:19.839Z,3.50
2023-03-28T05:40:48.035Z,3.50
2023-03-28T05:43:17.899Z,4.40
2023-03-28T05:45:47.518Z,3.60
2023-03-28T05:48:15.707Z,4.50
2023-03-28T05:50:45.488Z,3.60
2023-03-28T05:53:14.383Z,3.80
2023-03-28T05:55:43.505Z,3.60
2023-03-28T05:58:11.817Z,3.70
2023-03-28T06:00:42.122Z,4.10
2023-03-28T06:03:17.072Z,4.90
2023-03-28T06:05:46.010Z,4.00
2023-03-28T06:08:14.023Z,3.90
2023-03-28T06:10:42.180Z,4.10
2023-03-28T06:13:10.291Z,4.30
2023-03-28T06:15:38.377Z,5.30
2023-03-28T06:18:07.917Z,5.00
2023-03-28T06:20:36.282Z,4.00
2023-03-28T06:23:04.597Z,4.20
2023-03-28T06:25:32.768Z,4.20
2023-03-28T06:28:01.023Z,4.30
2023-03-28T06:30:29.382Z,4.60
2023-03-28T06:32:57.752Z,4.40
2023-03-28T06:35:27.479Z,5.40
2023-03-28T06:37:56.382Z,4.90
2023-03-28T06:40:24.465Z,4.50
2023-03-28T06:42:52.717Z,4.90
2023-03-28T06:45:20.876Z,4.80
2023-03-28T06:47:51.000Z,4.80
2023-03-28T06:50:19.502Z,5.20
2023-03-28T06:52:49.165Z,4.90
2023-03-28T06:55:17.367Z,5.30
2023-03-28T06:57:45.938Z,5.00
2023-03-28T07:00:14.951Z,5.40
2023-03-28T07:02:43.263Z,5.20
2023-03-28T07:05:11.715Z,5.30
2023-03-28T07:07:40.093Z,5.50
2023-03-28T07:10:10.919Z,5.40
2023-03-28T07:12:39.207Z,5.40
2023-03-28T07:15:08.725Z,5.50
2023-03-28T07:17:37.239Z,5.50
2023-03-28T07:20:06.415Z,5.90
2023-03-28T07:22:34.384Z,5.70
2023-03-28T07:25:06.239Z,5.80
2023-03-28T07:27:36.109Z,6.00
2023-03-28T07:30:04.801Z,5.90
2023-03-28T07:32:42.617Z,6.00
2023-03-28T07:35:18.966Z,6.80
2023-03-28T07:37:47.527Z,6.20
2023-03-28T07:40:16.743Z,6.50
2023-03-28T07:42:46.717Z,7.00
2023-03-28T07:45:15.100Z,6.90
2023-03-28T07:47:45.301Z,6.40
2023-03-28T07:50:13.426Z,7.30
2023-03-28T07:52:45.826Z,6.80
2023-03-28T07:55:14.095Z,6.70
2023-03-28T07:57:42.553Z,6.90
2023-03-28T08:00:14.449Z,6.90
2023-03-28T08:02:45.085Z,7.00
2023-03-28T08:05:16.149Z,7.40
2023-03-28T08:07:46.196Z,7.50
2023-03-28T08:10:15.035Z,7.00
2023-03-28T08:12:43.757Z,7.30
2023-03-28T08:15:13.665Z,7.30
2023-03-28T08:17:42.364Z,7.60
2023-03-28T08:20:11.738Z,7.50
2023-03-28T08:22:39.854Z,7.50
2023-03-28T08:25:09.675Z,7.70
2023-03-28T08:27:37.641Z,7.60
2023-03-28T08:30:06.865Z,7.60
2023-03-28T08:32:36.476Z,7.70
2023-03-28T08:35:08.525Z,7.80
2023-03-28T08:37:36.968Z,7.80
2023-03-28T08:40:08.830Z,7.90
2023-03-28T08:42:52.669Z,7.90
2023-03-28T08:45:33.023Z,8.00
2023-03-28T08:48:13.054Z,8.00
2023-03-28T08:50:47.672Z,8.00
2023-03-28T08:53:21.526Z,8.00
2023-03-28T08:55:53.900Z,8.00
2023-03-28T08:58:25.084Z,8.80
2023-03-28T09:00:54.270Z,8.20
2023-03-28T09:03:25.292Z,8.20
2023-03-28T09:05:57.241Z,8.20
2023-03-28T09:09:11.592Z,8.20
2023-03-28T09:11:51.227Z,8.20
2023-03-28T09:14:46.402Z,8.30
2023-03-28T09:17:23.097Z,8.30
2023-03-28T09:20:11.446Z,8.30
2023-03-28T09:22:52.684Z,8.70
2023-03-28T09:25:32.861Z,8.50
2023-03-28T09:28:09.136Z,8.40
2023-03-28T09:30:41.527Z,8.60
2023-03-28T09:33:16.216Z,9.00
2023-03-28T09:35:48.296Z,8.60
2023-03-28T09:38:22.596Z,8.60
2023-03-28T09:40:52.976Z,8.80
2023-03-28T09:43:28.818Z,8.70
2023-03-28T09:46:02.875Z,9.10
2023-03-28T09:48:33.463Z,8.70
2023-03-28T09:51:04.820Z,8.70
2023-03-28T09:53:37.928Z,8.60
2023-03-28T09:56:12.412Z,8.70
2023-03-28T09:58:52.105Z,8.80
2023-03-28T10:01:33.058Z,9.70
2023-03-28T10:04:02.601Z,8.80
2023-03-28T10:06:33.544Z,8.90
2023-03-28T10:09:20.346Z,9.10
2023-03-28T10:11:56.000Z,9.00
2023-03-28T10:14:32.462Z,9.00
2023-03-28T10:17:06.636Z,9.00
2023-03-28T10:19:37.164Z,8.90
2023-03-28T10:22:09.568Z,9.00
2023-03-28T10:24:39.644Z,8.90
2023-03-28T10:27:16.294Z,9.00
2023-03-28T10:29:46.119Z,8.90
2023-03-28T10:32:15.140Z,8.90
2023-03-28T10:34:43.292Z,9.00
2023-03-28T10:37:28.260Z,9.10
2023-03-28T10:40:05.219Z,9.30
2023-03-28T10:42:42.179Z,9.30
2023-03-28T10:45:21.720Z,9.40
2023-03-28T10:47:52.595Z,9.40
2023-03-28T10:50:36.834Z,9.30
2023-03-28T10:53:31.946Z,9.40
2023-03-28T10:56:13.914Z,9.40
2023-03-28T10:58:53.008Z,9.20
2023-03-28T11:01:24.788Z,9.50
2023-03-28T11:04:06.338Z,9.50
2023-03-28T11:06:45.110Z,9.70
2023-03-28T11:09:23.768Z,9.50
2023-03-28T11:12:03.028Z,10.10
2023-03-28T11:14:43.204Z,9.70
2023-03-28T11:17:19.531Z,9.80
2023-03-28T11:20:18.419Z,9.50
2023-03-28T11:23:05.517Z,9.80
2023-03-28T11:25:44.470Z,9.90
2023-03-28T11:28:22.098Z,9.80
2023-03-28T11:30:56.150Z,9.70
2023-03-28T11:33:30.230Z,10.40
2023-03-28T11:36:05.892Z,10.00
2023-03-28T11:38:40.441Z,9.90
2023-03-28T11:41:14.913Z,10.00
2023-03-28T11:43:49.445Z,10.00
2023-03-28T11:46:22.417Z,10.20
2023-03-28T11:48:55.931Z,10.30
2023-03-28T11:51:29.336Z,10.00
2023-03-28T11:54:01.849Z,10.10
2023-03-28T11:56:46.763Z,10.30
2023-03-28T11:59:22.837Z,10.50
2023-03-28T12:02:00.081Z,10.60
2023-03-28T12:04:33.005Z,10.90
2023-03-28T12:07:11.280Z,11.10
2023-03-28T12:09:52.019Z,11.10
2023-03-28T12:12:26.337Z,11.10
2023-03-28T12:14:59.280Z,11.20
2023-03-28T12:17:31.714Z,11.20
2023-03-28T12:20:00.360Z,11.20
2023-03-28T12:22:34.253Z,11.50
2023-03-28T12:25:10.823Z,11.30
2023-03-28T12:27:52.384Z,11.20
2023-03-28T12:30:26.100Z,11.10
2023-03-28T12:33:01.719Z,11.10
2023-03-28T12:35:38.373Z,11.20
2023-03-28T12:38:19.475Z,11.20
2023-03-28T12:41:01.129Z,11.20
2023-03-28T12:43:40.046Z,11.40
2023-03-28T12:46:09.733Z,11.40
2023-03-28T12:48:43.639Z,11.50
2023-03-28T12:51:19.039Z,11.40
2023-03-28T12:54:00.633Z,11.40
2023-03-28T12:56:29.247Z,11.50
2023-03-28T12:59:00.098Z,11.70
2023-03-28T13:01:48.758Z,11.60
2023-03-28T13:04:28.858Z,11.60
2023-03-28T13:07:08.631Z,11.80
2023-03-28T13:09:51.587Z,11.60
2023-03-28T13:12:35.041Z,11.60
2023-03-28T13:15:29.002Z,11.50
2023-03-28T13:18:28.592Z,11.40
2023-03-28T13:20:57.693Z,11.40
2023-03-28T13:23:37.851Z,11.30
2023-03-28T13:26:07.508Z,11.40
2023-03-28T13:28:42.219Z,11.20
2023-03-28T13:31:22.821Z,11.20
2023-03-28T13:33:58.863Z,11.20
2023-03-28T13:36:29.571Z,11.20
2023-03-28T13:39:20.732Z,11.20
2023-03-28T13:42:00.982Z,11.20
2023-03-28T13:44:43.218Z,11.20
2023-03-28T13:47:18.845Z,11.10
2023-03-28T13:49:52.197Z,11.10
2023-03-28T13:52:23.323Z,11.10
2023-03-28T13:55:01.581Z,11.20
2023-03-28T13:57:30.544Z,11.20
2023-03-28T14:00:01.538Z,11.30
2023-03-28T14:02:38.309Z,11.20
2023-03-28T14:05:15.948Z,11.10
2023-03-28T14:07:47.054Z,11.10
2023-03-28T14:10:31.569Z,11.10
2023-03-28T14:13:03.722Z,11.10
2023-03-28T14:15:36.273Z,11.20
2023-03-28T14:18:06.777Z,11.20
2023-03-28T14:20:36.259Z,11.40
2023-03-28T14:23:06.250Z,11.50
2023-03-28T14:25:34.590Z,11.50
2023-03-28T14:28:09.070Z,11.50
2023-03-28T14:30:41.120Z,11.50
2023-03-28T14:33:21.507Z,11.50
2023-03-28T14:36:02.074Z,11.50
2023-03-28T14:38:33.256Z,11.60
2023-03-28T14:41:19.393Z,11.50
2023-03-28T14:43:52.126Z,11.60
2023-03-28T14:46:24.510Z,11.40
2023-03-28T14:48:56.238Z,11.40
2023-03-28T14:51:24.936Z,11.30
2023-03-28T14:53:54.256Z,11.30
2023-03-28T14:56:25.194Z,11.20
2023-03-28T14:58:59.352Z,11.20
2023-03-28T15:01:28.750Z,11.20
2023-03-28T15:04:02.550Z,11.10
2023-03-28T15:06:31.352Z,11.00
2023-03-28T15:09:00.536Z,11.00
2023-03-28T15:11:32.581Z,10.90
2023-03-28T15:14:04.823Z,10.90
2023-03-28T15:16:38.606Z,11.00
2023-03-28T15:19:13.989Z,10.80
2023-03-28T15:21:43.745Z,10.70
2023-03-28T15:24:18.881Z,10.60
2023-03-28T15:26:51.236Z,10.60
2023-03-28T15:29:22.283Z,10.60
2023-03-28T15:31:50.761Z,10.60
2023-03-28T15:34:26.840Z,10.60
2023-03-28T15:37:00.589Z,10.60
2023-03-28T15:39:32.232Z,10.60
2023-03-28T15:42:02.903Z,10.50
2023-03-28T15:44:34.113Z,10.40
2023-03-28T15:47:07.379Z,10.40
2023-03-28T15:49:38.744Z,10.40
2023-03-28T15:52:09.881Z,10.30
2023-03-28T15:54:44.496Z,10.30
2023-03-28T15:57:15.470Z,10.20
2023-03-28T15:59:48.658Z,10.20
2023-03-28T16:02:33.431Z,10.20
2023-03-28T16:05:05.066Z,10.20
2023-03-28T16:07:38.572Z,10.20
2023-03-28T16:10:10.913Z,10.30
2023-03-28T16:12:39.070Z,10.20
2023-03-28T16:15:09.002Z,10.20
2023-03-28T16:17:37.671Z,10.20
2023-03-28T16:20:15.313Z,10.30
2023-03-28T16:22:44.320Z,10.40
2023-03-28T16:25:12.454Z,10.10
2023-03-28T16:27:42.509Z,10.10
2023-03-28T16:30:19.049Z,10.10
2023-03-28T16:32:47.611Z,10.10
2023-03-28T16:35:17.228Z,10.10
2023-03-28T16:37:48.299Z,10.10
2023-03-28T16:40:17.381Z,10.10
2023-03-28T16:42:45.980Z,10.10
2023-03-28T16:45:14.430Z,10.10
2023-03-28T16:47:42.773Z,10.00
2023-03-28T16:50:11.706Z,9.80
2023-03-28T16:52:41.877Z,10.00
2023-03-28T16:55:12.125Z,10.00
2023-03-28T16:57:40.082Z,9.90
2023-03-28T17:00:11.852Z,9.90
2023-03-28T17:02:40.085Z,9.80
2023-03-28T17:05:08.846Z,9.90
2023-03-28T17:07:37.093Z,9.80
2023-03-28T17:10:09.016Z,9.80
2023-03-28T17:12:37.312Z,9.70
2023-03-28T17:15:06.706Z,9.70
2023-03-28T17:17:34.990Z,9.70
2023-03-28T17:20:07.536Z,9.90
2023-03-28T17:22:36.231Z,9.70
2023-03-28T17:25:09.134Z,9.70
2023-03-28T17:27:39.432Z,9.60
2023-03-28T17:30:09.014Z,9.60
2023-03-28T17:32:37.210Z,9.60
2023-03-28T17:35:05.841Z,9.50
2023-03-28T17:37:38.722Z,9.50
2023-03-28T17:40:10.540Z,9.60
2023-03-28T17:42:40.503Z,9.70
2023-03-28T17:45:10.698Z,9.50
2023-03-28T17:47:39.745Z,9.60
2023-03-28T17:50:09.333Z,9.60
2023-03-28T17:52:37.802Z,9.50
2023-03-28T17:55:09.588Z,9.50
2023-03-28T17:57:41.742Z,9.50
2023-03-28T18:00:11.346Z,9.50
2023-03-28T18:02:41.374Z,9.40
2023-03-28T18:05:10.009Z,9.40
2023-03-28T18:07:41.470Z,9.30
2023-03-28T18:10:10.189Z,9.30
2023-03-28T18:12:39.802Z,9.20
2023-03-28T18:15:08.872Z,9.30
2023-03-28T18:17:37.193Z,9.00
2023-03-28T18:20:06.364Z,8.90
2023-03-28T18:22:35.273Z,8.90
2023-03-28T18:25:04.193Z,9.00
2023-03-28T18:27:32.292Z,8.80
2023-03-28T18:30:06.687Z,8.80
2023-03-28T18:32:35.101Z,8.70
2023-03-28T18:35:07.177Z,8.80
2023-03-28T18:37:35.511Z,8.70
2023-03-28T18:40:07.156Z,8.70
2023-03-28T18:42:36.600Z,8.60
2023-03-28T18:45:07.650Z,8.70
2023-03-28T18:47:38.790Z,8.70
2023-03-28T18:50:09.421Z,8.60
2023-03-28T18:52:38.182Z,8.60
2023-03-28T18:55:07.691Z,8.60
2023-03-28T18:57:35.919Z,8.60
2023-03-28T19:00:18.090Z,8.60
2023-03-28T19:02:50.260Z,8.60
2023-03-28T19:05:21.771Z,8.90
2023-03-28T19:07:49.771Z,8.60
2023-03-28T19:10:17.878Z,8.60
2023-03-28T19:12:46.013Z,8.40
2023-03-28T19:15:17.268Z,8.70
2023-03-28T19:17:46.120Z,8.50
2023-03-28T19:20:15.604Z,8.60
2023-03-28T19:22:47.206Z,9.10
2023-03-28T19:25:18.324Z,8.50
2023-03-28T19:27:49.667Z,8.50
2023-03-28T19:30:19.461Z,8.50
2023-03-28T19:32:47.688Z,8.60
2023-03-28T19:35:16.086Z,8.60
2023-03-28T19:37:44.459Z,8.40
2023-03-28T19:40:17.211Z,8.40
2023-03-28T19:42:45.587Z,8.40
2023-03-28T19:45:14.845Z,8.40
2023-03-28T19:47:45.079Z,8.50
2023-03-28T19:50:14.104Z,8.40
2023-03-28T19:52:42.643Z,8.30
2023-03-28T19:55:11.657Z,8.40
2023-03-28T19:57:40.939Z,8.20
2023-03-28T20:00:11.842Z,8.20
2023-03-28T20:02:40.269Z,8.20
2023-03-28T20:05:11.163Z,8.20
2023-03-28T20:07:39.246Z,8.20
2023-03-28T20:10:08.860Z,8.20
2023-03-28T20:12:39.926Z,8.00
2023-03-28T20:15:09.890Z,8.10
2023-03-28T20:17:38.569Z,8.10
2023-03-28T20:20:10.521Z,8.20
2023-03-28T20:22:38.968Z,8.10
2023-03-28T20:25:08.484Z,8.00
2023-03-28T20:27:37.909Z,8.00
2023-03-28T20:30:08.086Z,8.20
2023-03-28T20:32:38.934Z,8.00
2023-03-28T20:35:09.909Z,8.10
2023-03-28T20:37:38.063Z,7.90
2023-03-28T20:40:11.643Z,7.90
2023-03-28T20:42:44.220Z,7.90
2023-03-28T20:45:23.068Z,7.90
2023-03-28T20:47:56.358Z,7.90
2023-03-28T20:50:48.965Z,8.50
2023-03-28T21:06:43.347Z,7.90
2023-03-28T21:09:13.475Z,7.90
2023-03-28T21:11:42.348Z,7.90
2023-03-28T21:14:13.009Z,7.90
2023-03-28T21:16:44.310Z,7.90
2023-03-28T21:19:12.645Z,7.90
2023-03-28T21:21:42.606Z,7.90
2023-03-28T21:24:10.937Z,7.90
2023-03-28T21:26:40.361Z,8.10
2023-03-28T21:29:12.255Z,7.90
2023-03-28T21:31:43.015Z,7.90
2023-03-28T21:34:14.300Z,8.00
2023-03-28T21:36:44.585Z,7.80
2023-03-28T21:39:14.010Z,7.80
2023-03-28T21:41:42.332Z,8.10
2023-03-28T21:44:13.663Z,8.00
2023-03-28T21:46:41.823Z,8.00
2023-03-28T21:49:10.445Z,7.80
2023-03-28T21:51:38.795Z,8.10
2023-03-28T21:54:08.539Z,7.90
2023-03-28T21:56:36.746Z,7.90
2023-03-28T21:59:04.936Z,8.00
2023-03-28T22:01:33.071Z,7.90
2023-03-28T22:04:03.340Z,8.70
2023-03-28T22:06:31.535Z,8.00
2023-03-28T22:09:00.100Z,8.10
2023-03-28T22:11:29.843Z,8.20
2023-03-28T22:14:02.448Z,8.10
2023-03-28T22:16:32.670Z,7.90
2023-03-28T22:19:01.628Z,7.90
2023-03-28T22:21:31.616Z,7.90
2023-03-28T22:24:00.488Z,7.90
2023-03-28T22:26:32.696Z,7.90
2023-03-28T22:29:01.092Z,8.10
2023-03-28T22:31:29.341Z,8.00
2023-03-28T22:33:57.943Z,7.90
2023-03-28T22:36:26.228Z,7.90
2023-03-28T22:38:55.740Z,7.90
2023-03-28T22:41:24.536Z,7.90
2023-03-28T22:43:54.638Z,7.90
2023-03-28T22:46:23.271Z,8.00
2023-03-28T22:48:54.728Z,8.20
2023-03-28T22:51:25.312Z,8.10
2023-03-28T22:53:54.853Z,8.00
2023-03-28T22:56:25.540Z,8.10
2023-03-28T22:59:01.457Z,8.10
2023-03-28T23:01:36.444Z,8.00
2023-03-28T23:04:04.528Z,8.30
2023-03-28T23:06:35.230Z,8.00
2023-03-28T23:09:04.618Z,8.00
2023-03-28T23:11:33.091Z,8.30
2023-03-28T23:14:03.598Z,8.10
2023-03-28T23:16:34.904Z,8.10
2023-03-28T23:19:03.903Z,8.30
2023-03-28T23:21:35.556Z,8.10
2023-03-28T23:24:04.931Z,8.30
2023-03-28T23:26:33.290Z,8.10
2023-03-28T23:29:08.592Z,8.30
2023-03-28T23:31:36.890Z,8.10
2023-03-28T23:34:04.858Z,8.10
2023-03-28T23:36:32.965Z,8.30
2023-03-28T23:39:00.984Z,8.10
2023-03-28T23:41:30.845Z,8.40
2023-03-28T23:43:59.158Z,8.20
2023-03-28T23:46:28.834Z,8.20
2023-03-28T23:48:57.035Z,8.30
2023-03-28T23:51:25.673Z,8.20
2023-03-28T23:53:55.038Z,8.20
2023-03-28T23:56:23.919Z,8.40
2023-03-28T23:58:52.151Z,8.20
